Time;durP1;ratioP1;P1;durP2;ratioP2;P2;SDS_P1;SDS_P2;PMS_P1;PMS_P2;Temp;Humidity;BMP_temperature;BMP_pressure;BME280_temperature;BME280_humidity;BME280_pressure;Samples;Min_cycle;Max_cycle;Signal;HPM_P1;HPM_P2
2022/12/21 00:01:29;;;;;;;5.73;4.10;;;6.10;97.30;;;;;;4993718;28;20784;-83
2022/12/21 00:03:57;;;;;;;5.20;4.10;;;6.00;97.30;;;;;;4979360;28;20170;-87
2022/12/21 00:06:24;;;;;;;4.33;3.10;;;6.00;97.30;;;;;;4964471;28;20495;-84
2022/12/21 00:08:51;;;;;;;4.13;3.90;;;5.90;97.30;;;;;;4978126;28;20503;-84
2022/12/21 00:11:18;;;;;;;2.20;2.00;;;5.90;97.30;;;;;;4978931;28;20424;-87
2022/12/21 00:13:44;;;;;;;4.80;4.50;;;5.80;97.30;;;;;;4978484;28;20811;-87
2022/12/21 00:16:12;;;;;;;9.47;4.83;;;5.80;97.30;;;;;;4982338;28;20443;-82
2022/12/21 00:18:38;;;;;;;3.60;3.27;;;5.80;97.30;;;;;;4966237;28;20426;-88
2022/12/21 00:21:07;;;;;;;9.93;3.47;;;5.80;97.30;;;;;;4980318;28;20417;-87
2022/12/21 00:23:33;;;;;;;4.30;3.10;;;5.80;97.30;;;;;;4981976;28;20497;-87
2022/12/21 00:26:00;;;;;;;2.70;2.50;;;5.80;97.30;;;;;;4977291;28;20559;-87
2022/12/21 00:28:26;;;;;;;4.67;3.10;;;5.80;97.30;;;;;;4982497;28;20429;-84
2022/12/21 00:30:52;;;;;;;5.43;4.60;;;5.70;97.30;;;;;;4983940;28;20432;-88
2022/12/21 00:33:18;;;;;;;13.53;3.57;;;5.70;97.30;;;;;;4981353;28;20186;-87
2022/12/21 00:35:50;;;;;;;9.20;5.93;;;5.70;97.30;;;;;;4998316;28;20217;-87
2022/12/21 00:38:16;;;;;;;11.53;4.90;;;5.70;97.30;;;;;;4996113;28;20178;-83
2022/12/21 00:40:43;;;;;;;8.77;4.47;;;5.70;97.30;;;;;;4981729;28;20433;-85
2022/12/21 00:43:09;;;;;;;4.60;3.07;;;5.70;97.30;;;;;;4982361;28;20499;-86
2022/12/21 00:45:34;;;;;;;9.50;4.27;;;5.70;97.30;;;;;;4970066;28;20508;-84
2022/12/21 00:48:00;;;;;;;9.00;4.30;;;5.70;97.30;;;;;;4977795;28;20461;-86
2022/12/21 00:50:26;;;;;;;9.03;4.27;;;5.80;97.30;;;;;;4988352;28;20197;-87
2022/12/21 00:52:51;;;;;;;1.97;1.87;;;5.80;97.30;;;;;;4989163;28;20431;-87
2022/12/21 00:55:17;;;;;;;7.70;4.77;;;5.80;97.30;;;;;;4987228;28;20178;-87
2022/12/21 00:57:43;;;;;;;14.10;3.70;;;5.80;97.30;;;;;;4987925;28;20229;-85
2022/12/21 01:00:09;;;;;;;8.53;3.43;;;5.80;97.30;;;;;;4988767;28;20632;-84
2022/12/21 01:02:35;;;;;;;5.17;3.50;;;5.80;97.30;;;;;;5000894;28;20185;-84
2022/12/21 01:05:01;;;;;;;8.00;4.73;;;5.80;97.30;;;;;;4976769;28;20426;-86
2022/12/21 01:07:27;;;;;;;4.40;4.10;;;5.80;97.30;;;;;;4997286;28;20469;-86
2022/12/21 01:09:53;;;;;;;6.40;3.80;;;5.80;97.30;;;;;;4985664;28;20827;-86
2022/12/21 01:12:18;;;;;;;3.00;2.80;;;5.80;97.30;;;;;;4982428;28;20182;-85
2022/12/21 01:14:44;;;;;;;5.87;2.00;;;5.80;97.30;;;;;;4981175;28;20665;-86
2022/12/21 01:17:09;;;;;;;5.10;4.70;;;5.80;97.30;;;;;;4986896;28;20198;-87
2022/12/21 01:19:35;;;;;;;11.50;5.43;;;5.80;97.30;;;;;;4992911;28;20197;-86
2022/12/21 01:22:00;;;;;;;4.83;3.50;;;5.90;97.30;;;;;;4975606;28;20245;-86
2022/12/21 01:24:26;;;;;;;5.10;3.27;;;5.90;97.30;;;;;;4975469;28;20190;-87
2022/12/21 01:26:51;;;;;;;11.00;4.63;;;5.80;97.30;;;;;;4975305;28;20213;-86
2022/12/21 01:29:16;;;;;;;7.50;3.80;;;5.80;97.30;;;;;;4968730;28;20175;-86
2022/12/21 01:31:42;;;;;;;6.30;4.93;;;5.80;97.30;;;;;;4969808;28;20597;-87
2022/12/21 01:34:07;;;;;;;5.47;5.17;;;5.80;97.30;;;;;;4975053;28;20180;-86
2022/12/21 01:36:33;;;;;;;8.30;5.00;;;5.80;97.30;;;;;;4964827;28;20202;-87
2022/12/21 01:38:58;;;;;;;9.93;4.10;;;5.80;97.30;;;;;;4972431;28;20527;-88
2022/12/21 01:41:27;;;;;;;3.87;2.80;;;5.80;97.30;;;;;;4974874;28;20177;-87
2022/12/21 01:44:00;;;;;;;7.93;3.10;;;5.80;97.30;;;;;;4975334;28;20265;-85
2022/12/21 01:46:42;;;;;;;5.60;3.03;;;5.70;97.30;;;;;;4975432;28;20966;-87
2022/12/21 01:49:25;;;;;;;9.73;6.37;;;5.70;97.30;;;;;;4963051;28;20504;-86
2022/12/21 01:51:55;;;;;;;6.80;3.20;;;5.70;97.30;;;;;;4966564;28;20937;-87
2022/12/21 01:54:31;;;;;;;6.77;4.20;;;5.70;97.30;;;;;;4971884;28;20451;-86
2022/12/21 01:57:00;;;;;;;4.27;4.03;;;5.70;97.30;;;;;;4975141;28;20464;-87
2022/12/21 01:59:32;;;;;;;52.90;4.60;;;5.70;97.30;;;;;;4975218;28;20958;-87
2022/12/21 02:02:03;;;;;;;3.00;2.80;;;5.60;97.30;;;;;;4975457;28;20561;-87
2022/12/21 02:04:29;;;;;;;4.60;2.77;;;5.60;97.30;;;;;;4973303;28;20456;-87
2022/12/21 02:06:56;;;;;;;8.67;5.37;;;5.60;97.30;;;;;;4977007;28;20461;-87
2022/12/21 02:09:24;;;;;;;6.80;5.60;;;5.60;97.30;;;;;;4974333;28;20421;-87
2022/12/21 02:11:51;;;;;;;8.30;4.83;;;5.60;97.30;;;;;;4970795;28;20432;-87
2022/12/21 02:14:17;;;;;;;5.43;3.63;;;5.60;97.30;;;;;;4966951;28;20414;-87
2022/12/21 02:16:49;;;;;;;6.40;4.60;;;5.50;97.30;;;;;;4968522;28;20604;-87
2022/12/21 02:20:05;;;;;;;5.50;2.90;;;5.50;97.30;;;;;;4963045;28;20178;-87
2022/12/21 02:22:41;;;;;;;7.13;4.20;;;5.50;97.30;;;;;;4960068;28;20431;-87
2022/12/21 02:25:06;;;;;;;10.23;3.33;;;5.50;97.30;;;;;;4974278;28;20472;-87
2022/12/21 02:27:37;;;;;;;3.10;2.07;;;5.50;97.30;;;;;;4974540;28;20472;-87
2022/12/21 02:30:12;;;;;;;7.10;5.23;;;5.50;97.30;;;;;;4974588;28;20178;-87
2022/12/21 02:32:58;;;;;;;8.13;2.70;;;5.50;97.30;;;;;;4974620;28;20532;-87
2022/12/21 02:36:03;;;;;;;5.03;3.73;;;5.50;97.30;;;;;;4961540;28;20912;-87
2022/12/21 02:39:03;;;;;;;6.43;2.90;;;5.40;97.30;;;;;;4972108;28;20440;-88
2022/12/21 02:41:46;;;;;;;5.33;3.20;;;5.40;97.30;;;;;;4973970;28;20417;-87
2022/12/21 02:44:42;;;;;;;5.67;4.10;;;5.40;97.30;;;;;;4990460;28;20421;-87
2022/12/21 02:47:22;;;;;;;5.07;4.77;;;5.40;97.30;;;;;;4974246;28;20468;-87
2022/12/21 02:50:11;;;;;;;8.40;3.83;;;5.40;97.30;;;;;;4974192;28;20998;-87
2022/12/21 02:52:48;;;;;;;6.23;3.50;;;5.40;97.30;;;;;;4974051;28;20465;-87
2022/12/21 02:55:14;;;;;;;18.10;2.90;;;5.40;97.30;;;;;;4974274;28;20843;-87
2022/12/21 02:57:42;;;;;;;6.07;4.73;;;5.40;97.30;;;;;;4973718;28;20456;-87
2022/12/21 03:00:14;;;;;;;6.90;3.07;;;5.50;97.30;;;;;;4991233;28;20189;-87
2022/12/21 03:06:20;;;;;;;7.77;3.97;;;5.50;97.30;;;;;;4990180;28;20636;-86
2022/12/21 03:09:30;;;;;;;4.43;3.87;;;5.50;97.30;;;;;;4971437;28;20924;-86
2022/12/21 03:12:13;;;;;;;8.53;5.07;;;5.60;97.30;;;;;;4981809;28;20921;-86
2022/12/21 03:15:02;;;;;;;5.40;3.47;;;5.60;97.30;;;;;;4990588;28;20486;-87
2022/12/21 03:17:59;;;;;;;6.10;3.83;;;5.60;97.30;;;;;;4973329;28;20471;-87
2022/12/21 03:20:30;;;;;;;4.57;3.30;;;5.70;97.30;;;;;;4956339;28;20436;-87
2022/12/21 03:22:59;;;;;;;4.23;3.43;;;5.70;97.30;;;;;;4973883;28;20799;-87
2022/12/21 03:25:29;;;;;;;13.40;3.90;;;5.70;97.30;;;;;;4973244;28;20511;-86
2022/12/21 03:28:00;;;;;;;14.20;4.00;;;5.70;97.30;;;;;;4990914;28;20455;-86
2022/12/21 03:30:28;;;;;;;7.60;4.17;;;5.70;97.30;;;;;;4970432;28;20425;-87
2022/12/21 03:33:07;;;;;;;3.10;2.90;;;5.80;97.30;;;;;;4972638;28;20809;-87
2022/12/21 03:35:38;;;;;;;3.83;3.30;;;5.80;97.30;;;;;;4972979;28;20799;-88
2022/12/21 03:38:08;;;;;;;3.60;3.40;;;5.80;97.30;;;;;;4973384;28;20429;-87
2022/12/21 03:40:38;;;;;;;6.10;4.40;;;5.80;97.30;;;;;;4973063;28;20417;-86
2022/12/21 03:43:05;;;;;;;5.10;4.00;;;5.80;97.30;;;;;;4973075;28;20429;-87
2022/12/21 03:45:46;;;;;;;19.73;4.37;;;5.80;97.30;;;;;;4973189;28;20467;-87
2022/12/21 03:48:54;;;;;;;3.80;3.60;;;5.80;97.30;;;;;;4970993;28;20796;-88
2022/12/21 03:51:34;;;;;;;3.57;3.00;;;5.80;97.30;;;;;;4898423;29;20715;-87
2022/12/21 03:54:07;;;;;;;7.53;5.60;;;5.80;97.30;;;;;;4894102;29;20429;-89
2022/12/21 03:56:36;;;;;;;11.13;3.47;;;5.80;97.30;;;;;;4959276;28;20947;-87
2022/12/21 03:59:03;;;;;;;5.70;3.80;;;5.80;97.30;;;;;;4972782;28;20540;-88
2022/12/21 04:01:47;;;;;;;6.40;3.80;;;5.80;97.30;;;;;;4989488;28;20479;-87
2022/12/21 04:04:28;;;;;;;4.87;2.93;;;5.90;97.30;;;;;;4972047;28;20979;-86
2022/12/21 04:06:58;;;;;;;10.20;4.97;;;5.90;97.30;;;;;;4961195;28;20501;-88
2022/12/21 04:09:23;;;;;;;3.83;3.60;;;5.90;97.30;;;;;;4960596;28;20938;-87
2022/12/21 04:14:33;;;;;;;8.73;3.30;;;5.90;97.30;;;;;;4980820;28;20707;-87
2022/12/21 04:16:58;;;;;;;3.83;3.63;;;5.90;97.30;;;;;;4960708;28;20461;-88
2022/12/21 04:22:08;;;;;;;13.27;5.73;;;6.00;97.30;;;;;;4975443;28;20186;-87
2022/12/21 04:30:03;;;;;;;2.80;2.60;;;6.00;97.30;;;;;;4977361;28;20582;-87
2022/12/21 04:32:29;;;;;;;4.40;3.77;;;6.00;97.30;;;;;;4990367;28;20417;-87
2022/12/21 04:34:54;;;;;;;6.63;4.83;;;6.10;97.30;;;;;;4968934;28;20414;-87
2022/12/21 04:37:32;;;;;;;2.13;1.97;;;6.10;97.30;;;;;;4972630;28;20484;-88
2022/12/21 04:39:59;;;;;;;10.33;4.10;;;6.10;97.30;;;;;;4957817;28;20372;-87
2022/12/21 04:42:25;;;;;;;8.13;4.77;;;6.10;97.30;;;;;;4979317;28;20801;-88
2022/12/21 04:44:50;;;;;;;13.53;3.57;;;6.10;97.30;;;;;;4969481;28;20425;-88
2022/12/21 04:47:16;;;;;;;8.80;2.40;;;6.20;97.30;;;;;;4989234;28;20471;-87
2022/12/21 04:49:42;;;;;;;9.50;4.63;;;6.20;97.30;;;;;;4972831;28;20185;-86
2022/12/21 04:52:07;;;;;;;3.37;3.20;;;6.20;97.30;;;;;;4971614;28;20182;-87
2022/12/21 04:54:33;;;;;;;3.90;2.50;;;6.20;97.30;;;;;;4971863;28;20553;-87
2022/12/21 04:56:58;;;;;;;4.43;4.13;;;6.30;97.30;;;;;;4971946;28;20264;-87
2022/12/21 04:59:24;;;;;;;5.03;4.20;;;6.30;97.30;;;;;;4972361;28;20194;-88
2022/12/21 05:01:49;;;;;;;3.77;3.57;;;6.30;97.30;;;;;;4971444;28;20633;-88
2022/12/21 05:04:15;;;;;;;6.40;3.17;;;6.40;97.30;;;;;;4968976;28;20468;-87
2022/12/21 05:06:40;;;;;;;5.27;3.17;;;6.40;97.30;;;;;;4971522;28;20213;-87
2022/12/21 05:09:06;;;;;;;4.40;3.03;;;6.40;97.30;;;;;;4974275;28;20178;-87
2022/12/21 05:11:33;;;;;;;5.77;3.23;;;6.40;97.30;;;;;;4975723;28;20214;-87
2022/12/21 05:13:59;;;;;;;3.03;2.87;;;6.50;97.30;;;;;;4974792;28;20236;-87
2022/12/21 05:16:24;;;;;;;3.23;3.03;;;6.50;97.30;;;;;;4975850;28;20444;-87
2022/12/21 05:18:52;;;;;;;13.30;3.60;;;6.50;97.30;;;;;;4975982;28;20182;-87
2022/12/21 05:21:18;;;;;;;3.43;3.23;;;6.50;97.30;;;;;;4968327;28;20182;-87
2022/12/21 05:23:44;;;;;;;5.47;4.47;;;6.60;97.30;;;;;;4969268;28;20424;-87
2022/12/21 05:26:11;;;;;;;10.33;5.77;;;6.60;97.30;;;;;;4973022;28;20989;-87
2022/12/21 05:28:37;;;;;;;7.10;3.70;;;6.60;97.30;;;;;;4968745;28;20183;-88
2022/12/21 05:31:03;;;;;;;5.80;4.40;;;6.70;97.30;;;;;;4963375;28;20426;-87
2022/12/21 05:33:29;;;;;;;4.40;3.63;;;6.70;97.30;;;;;;4965375;28;20418;-87
2022/12/21 05:35:55;;;;;;;6.73;3.37;;;6.70;97.30;;;;;;4969005;28;21026;-87
2022/12/21 05:38:20;;;;;;;6.20;2.93;;;6.70;97.30;;;;;;4971692;28;20179;-87
2022/12/21 05:40:47;;;;;;;15.80;6.03;;;6.70;97.30;;;;;;4963805;28;20664;-87
2022/12/21 05:43:13;;;;;;;11.50;5.07;;;6.80;97.30;;;;;;4958428;28;20182;-88
2022/12/21 05:45:38;;;;;;;7.93;4.00;;;6.80;97.30;;;;;;4971665;28;20433;-87
2022/12/21 05:48:04;;;;;;;5.53;3.20;;;6.80;97.30;;;;;;4975378;28;20194;-88
2022/12/21 05:50:29;;;;;;;5.23;3.97;;;6.80;97.30;;;;;;4991420;28;20182;-87
2022/12/21 05:52:55;;;;;;;1.40;1.30;;;6.80;97.30;;;;;;4975316;28;20182;-88
2022/12/21 05:55:20;;;;;;;7.30;4.60;;;6.90;97.30;;;;;;4992340;28;20723;-88
2022/12/21 05:57:46;;;;;;;3.27;2.90;;;6.90;97.30;;;;;;4994931;23;20515;-86
2022/12/21 06:00:12;;;;;;;6.30;4.20;;;6.90;97.30;;;;;;4962343;28;20262;-87
2022/12/21 06:02:38;;;;;;;4.70;2.80;;;6.90;97.30;;;;;;4967441;28;20418;-85
2022/12/21 06:05:03;;;;;;;5.50;3.60;;;6.90;97.30;;;;;;4971048;28;20485;-85
2022/12/21 06:07:29;;;;;;;5.13;2.83;;;6.90;97.30;;;;;;4960030;28;20218;-85
2022/12/21 06:09:55;;;;;;;3.10;2.90;;;7.00;97.30;;;;;;4973891;28;20184;-89
2022/12/21 06:12:20;;;;;;;3.80;3.60;;;7.00;97.30;;;;;;4974781;28;20178;-88
2022/12/21 06:14:46;;;;;;;2.83;2.50;;;7.00;97.30;;;;;;4992541;28;20189;-86
2022/12/21 06:17:11;;;;;;;5.40;4.30;;;7.00;97.30;;;;;;4974120;28;20308;-88
2022/12/21 06:19:37;;;;;;;7.93;3.73;;;7.00;97.30;;;;;;4973429;28;20189;-86
2022/12/21 06:22:02;;;;;;;2.50;2.30;;;7.10;97.30;;;;;;4973210;28;20656;-88
2022/12/21 06:24:28;;;;;;;4.70;2.27;;;7.10;97.30;;;;;;4973495;28;20189;-88
2022/12/21 06:26:54;;;;;;;3.60;3.40;;;7.10;97.30;;;;;;4973371;28;20496;-89
2022/12/21 06:29:19;;;;;;;6.80;4.03;;;7.10;97.30;;;;;;4973606;28;20170;-88
2022/12/21 06:31:45;;;;;;;8.77;3.30;;;7.10;97.30;;;;;;4973032;28;20185;-85
2022/12/21 06:34:11;;;;;;;8.73;5.63;;;7.10;97.30;;;;;;4990533;28;20731;-85
2022/12/21 06:36:36;;;;;;;3.50;1.80;;;7.10;97.30;;;;;;4973510;28;20217;-86
2022/12/21 06:39:02;;;;;;;8.70;3.50;;;7.10;97.30;;;;;;4963002;28;20197;-85
2022/12/21 06:41:27;;;;;;;3.10;2.83;;;7.10;97.30;;;;;;4974468;28;20593;-85
2022/12/21 06:43:53;;;;;;;3.57;3.40;;;7.10;97.30;;;;;;4974744;28;20380;-86
2022/12/21 06:46:19;;;;;;;3.50;3.07;;;7.10;97.30;;;;;;4970505;28;20205;-88
2022/12/21 06:48:45;;;;;;;3.87;2.77;;;7.20;97.30;;;;;;4971809;28;20182;-88
2022/12/21 06:51:17;;;;;;;6.93;2.67;;;7.20;97.30;;;;;;4966769;28;20584;-87
2022/12/21 06:53:44;;;;;;;5.17;3.33;;;7.20;97.30;;;;;;4991480;28;20181;-86
2022/12/21 06:56:19;;;;;;;3.23;2.63;;;7.20;97.30;;;;;;4973053;28;20421;-86
2022/12/21 06:58:45;;;;;;;2.77;2.57;;;7.20;97.30;;;;;;4973881;28;20432;-86
2022/12/21 07:01:19;;;;;;;8.77;4.57;;;7.30;97.30;;;;;;4972667;28;20428;-86
2022/12/21 07:03:45;;;;;;;3.30;3.10;;;7.30;97.30;;;;;;4968489;28;20412;-86
2022/12/21 07:06:12;;;;;;;5.80;3.23;;;7.30;97.30;;;;;;4977145;28;20979;-87
2022/12/21 07:08:39;;;;;;;7.53;3.57;;;7.30;97.30;;;;;;4974807;28;20476;-85
2022/12/21 07:11:10;;;;;;;2.27;2.07;;;7.30;97.30;;;;;;4969697;28;20425;-88
2022/12/21 07:13:37;;;;;;;4.80;2.30;;;7.40;97.30;;;;;;4969830;28;20452;-86
2022/12/21 07:16:03;;;;;;;11.33;3.23;;;7.40;97.30;;;;;;4975972;28;20420;-88
2022/12/21 07:18:29;;;;;;;4.50;3.17;;;7.40;97.30;;;;;;4971205;28;20446;-88
2022/12/21 07:24:24;;;;;;;2.20;1.93;;;7.40;97.30;;;;;;4892328;28;20352;-88
2022/12/21 07:29:30;;;;;;;15.23;3.63;;;7.40;97.30;;;;;;4988300;23;20925;-90
2022/12/21 07:32:10;;;;;;;2.27;2.07;;;7.40;97.30;;;;;;4968811;28;20429;-91
2022/12/21 07:34:59;;;;;;;4.80;3.60;;;7.40;97.30;;;;;;4970979;28;20413;-91
2022/12/21 07:37:30;;;;;;;3.87;2.90;;;7.40;97.30;;;;;;4981504;28;20512;-91
2022/12/21 07:40:29;;;;;;;3.57;3.37;;;7.40;97.30;;;;;;4970911;28;20429;-90
2022/12/21 07:43:09;;;;;;;6.97;2.80;;;7.40;97.30;;;;;;4968400;28;20424;-90
2022/12/21 07:46:01;;;;;;;6.13;2.83;;;7.40;97.30;;;;;;4974222;28;20540;-90
2022/12/21 07:48:30;;;;;;;4.27;4.00;;;7.40;97.30;;;;;;4973606;28;20445;-89
2022/12/21 07:50:59;;;;;;;9.93;4.33;;;7.40;97.30;;;;;;4973542;28;20420;-91
2022/12/21 07:53:29;;;;;;;8.30;4.43;;;7.40;97.30;;;;;;4991636;28;20415;-89
2022/12/21 07:56:12;;;;;;;7.53;3.70;;;7.40;97.30;;;;;;4974357;28;20420;-89
2022/12/21 07:58:37;;;;;;;4.47;3.90;;;7.40;97.30;;;;;;4973570;28;20421;-90
2022/12/21 08:01:09;;;;;;;23.40;3.30;;;7.40;97.30;;;;;;4973675;28;20433;-91
2022/12/21 08:03:38;;;;;;;4.57;4.10;;;7.40;97.30;;;;;;4967002;28;20204;-91
2022/12/21 08:06:04;;;;;;;2.90;2.50;;;7.40;97.30;;;;;;4975894;28;20463;-91
2022/12/21 08:08:30;;;;;;;7.57;4.37;;;7.40;97.30;;;;;;4974125;28;20507;-91
2022/12/21 08:11:01;;;;;;;8.20;4.83;;;7.50;97.30;;;;;;4973287;28;20908;-91
2022/12/21 08:13:30;;;;;;;2.77;1.90;;;7.50;97.30;;;;;;4971952;28;20217;-91
2022/12/21 08:16:07;;;;;;;2.87;2.63;;;7.50;97.30;;;;;;4964048;28;20826;-89
2022/12/21 08:18:33;;;;;;;7.60;4.33;;;7.50;97.30;;;;;;4970231;28;20435;-89
2022/12/21 08:20:59;;;;;;;3.13;1.53;;;7.50;97.30;;;;;;4975438;28;20516;-89
2022/12/21 08:23:25;;;;;;;4.20;3.80;;;7.50;97.30;;;;;;4972232;28;20653;-89
2022/12/21 08:25:51;;;;;;;4.90;2.20;;;7.60;97.30;;;;;;4973643;28;20641;-88
2022/12/21 08:28:16;;;;;;;4.00;2.03;;;7.60;97.30;;;;;;4972464;28;20475;-87
2022/12/21 08:30:42;;;;;;;3.37;2.40;;;7.60;97.30;;;;;;4973160;28;20200;-87
2022/12/21 08:33:09;;;;;;;2.27;1.80;;;7.60;97.30;;;;;;4972694;28;20179;-87
2022/12/21 08:35:35;;;;;;;4.17;2.50;;;7.70;97.30;;;;;;4990472;28;20188;-87
2022/12/21 08:38:00;;;;;;;6.67;4.20;;;7.70;97.30;;;;;;4972531;28;20457;-87
2022/12/21 08:40:26;;;;;;;2.60;2.40;;;7.70;97.30;;;;;;4972858;28;20190;-88
2022/12/21 08:42:51;;;;;;;1.70;1.60;;;7.70;97.30;;;;;;4975981;28;20221;-90
2022/12/21 08:45:17;;;;;;;7.13;3.53;;;7.70;97.30;;;;;;4977031;28;20592;-89
2022/12/21 08:47:42;;;;;;;2.93;2.73;;;7.70;97.30;;;;;;4976475;28;20476;-87
2022/12/21 08:50:08;;;;;;;2.23;1.33;;;7.80;97.30;;;;;;4978959;28;20186;-90
2022/12/21 08:52:34;;;;;;;3.90;2.90;;;7.80;97.30;;;;;;4980331;28;20190;-90
2022/12/21 08:54:59;;;;;;;4.17;3.93;;;7.80;97.30;;;;;;4993375;28;20197;-90
2022/12/21 08:57:25;;;;;;;3.57;2.50;;;7.80;97.30;;;;;;4976218;28;20292;-89
2022/12/21 08:59:50;;;;;;;4.63;3.70;;;7.90;97.30;;;;;;4973882;28;20185;-90
2022/12/21 09:02:15;;;;;;;3.53;2.40;;;7.90;97.30;;;;;;4981489;28;20191;-89
2022/12/21 09:04:41;;;;;;;4.30;2.47;;;7.90;97.30;;;;;;4993520;28;20251;-90
2022/12/21 09:07:07;;;;;;;1.47;1.40;;;7.90;97.30;;;;;;4976244;28;20267;-90
2022/12/21 09:09:33;;;;;;;3.00;2.80;;;7.90;97.30;;;;;;4976144;28;20189;-90
2022/12/21 09:11:59;;;;;;;2.37;2.17;;;8.00;97.30;;;;;;4963891;28;20186;-88
2022/12/21 09:14:25;;;;;;;3.47;3.27;;;8.00;97.30;;;;;;4974083;28;20807;-88
2022/12/21 09:16:51;;;;;;;2.30;2.10;;;8.00;97.30;;;;;;4972533;28;20472;-88
2022/12/21 09:19:17;;;;;;;2.23;1.90;;;8.00;97.30;;;;;;4977866;28;20515;-88
2022/12/21 09:21:42;;;;;;;2.10;1.77;;;8.00;97.30;;;;;;4995313;28;20491;-87
2022/12/21 09:24:08;;;;;;;2.57;2.37;;;8.10;97.30;;;;;;4981418;28;20735;-87
2022/12/21 09:26:34;;;;;;;6.00;3.17;;;8.10;97.30;;;;;;4980474;28;20305;-87
2022/12/21 09:28:59;;;;;;;2.77;2.57;;;8.20;97.30;;;;;;4995238;28;20208;-87
2022/12/21 09:31:25;;;;;;;2.40;2.20;;;8.20;97.30;;;;;;4978600;28;20543;-87
2022/12/21 09:33:51;;;;;;;2.90;2.70;;;8.20;97.30;;;;;;4977911;28;20185;-88
2022/12/21 09:36:17;;;;;;;2.37;2.13;;;8.20;97.30;;;;;;4992981;28;20190;-87
2022/12/21 09:38:43;;;;;;;1.70;1.60;;;8.20;97.30;;;;;;4976332;28;20423;-88
2022/12/21 09:41:08;;;;;;;2.53;1.83;;;8.30;97.30;;;;;;4976093;28;20186;-88
2022/12/21 09:43:42;;;;;;;2.03;1.90;;;8.30;97.30;;;;;;4975380;28;20503;-88
2022/12/21 09:46:11;;;;;;;4.00;2.90;;;8.30;97.30;;;;;;4975013;28;20213;-87
2022/12/21 09:48:42;;;;;;;6.53;2.63;;;8.30;97.30;;;;;;4977692;28;20832;-88
2022/12/21 09:51:13;;;;;;;4.60;2.10;;;8.40;97.30;;;;;;4975225;28;20947;-88
2022/12/21 09:53:48;;;;;;;1.97;1.67;;;8.40;97.30;;;;;;4968101;28;20413;-88
2022/12/21 09:56:18;;;;;;;4.40;2.90;;;8.50;97.30;;;;;;4967566;28;20425;-88
2022/12/21 09:58:48;;;;;;;4.00;3.20;;;8.50;97.30;;;;;;4975484;28;20436;-88
2022/12/21 10:01:16;;;;;;;1.10;1.00;;;8.60;97.30;;;;;;4967824;28;20417;-87
2022/12/21 10:04:18;;;;;;;1.73;1.63;;;8.60;97.30;;;;;;4975049;28;20440;-88
2022/12/21 10:07:14;;;;;;;1.60;1.50;;;8.70;97.30;;;;;;4981384;28;20480;-88
2022/12/21 10:09:46;;;;;;;29.97;3.13;;;8.80;97.30;;;;;;4956102;28;20422;-88
2022/12/21 10:12:26;;;;;;;1.00;0.90;;;8.80;97.30;;;;;;4956580;28;20988;-88
2022/12/21 10:15:12;;;;;;;2.00;1.90;;;8.80;97.30;;;;;;4975530;28;20432;-89
2022/12/21 10:17:43;;;;;;;4.10;1.67;;;8.90;97.30;;;;;;4992360;28;20532;-88
2022/12/21 10:20:28;;;;;;;1.87;1.70;;;8.90;97.30;;;;;;4975260;28;20429;-88
2022/12/21 10:23:02;;;;;;;18.50;2.53;;;8.90;97.30;;;;;;4981226;28;20430;-89
2022/12/21 10:25:40;;;;;;;1.10;1.00;;;9.00;97.30;;;;;;4989011;28;20852;-88
2022/12/21 10:28:22;;;;;;;2.10;1.97;;;9.00;97.30;;;;;;4964926;28;20483;-88
2022/12/21 10:31:09;;;;;;;1.87;1.77;;;9.10;97.30;;;;;;4974866;28;20828;-88
2022/12/21 10:33:46;;;;;;;2.90;2.70;;;9.10;97.30;;;;;;4974541;28;20436;-87
2022/12/21 10:36:15;;;;;;;2.00;1.87;;;9.10;97.30;;;;;;4978146;28;20536;-88
2022/12/21 10:38:41;;;;;;;1.80;1.70;;;9.20;97.30;;;;;;4974356;28;20433;-88
2022/12/21 10:41:12;;;;;;;1.67;1.57;;;9.20;97.30;;;;;;4974520;28;20417;-88
2022/12/21 10:43:39;;;;;;;1.00;0.90;;;9.20;97.30;;;;;;4974019;28;20223;-88
2022/12/21 10:46:05;;;;;;;3.37;2.03;;;9.20;97.30;;;;;;4974368;28;20472;-88
2022/12/21 10:48:32;;;;;;;1.50;1.40;;;9.20;97.30;;;;;;4974228;28;21005;-88
2022/12/21 10:51:14;;;;;;;7.93;3.23;;;9.20;97.30;;;;;;4973116;28;20464;-88
2022/12/21 10:53:40;;;;;;;2.60;2.40;;;9.30;97.30;;;;;;4974421;28;20420;-88
2022/12/21 10:56:06;;;;;;;1.70;1.60;;;9.40;97.30;;;;;;4974032;28;20429;-87
2022/12/21 10:58:34;;;;;;;1.63;1.60;;;9.40;97.30;;;;;;4968156;28;21011;-88
2022/12/21 11:01:16;;;;;;;1.70;1.60;;;9.40;97.30;;;;;;4974315;28;20336;-88
2022/12/21 11:03:42;;;;;;;1.83;1.73;;;9.50;97.30;;;;;;4974531;28;20432;-88
2022/12/21 11:06:16;;;;;;;2.57;2.40;;;9.50;97.30;;;;;;4972707;28;20456;-88
2022/12/21 11:08:52;;;;;;;2.57;2.37;;;9.50;97.30;;;;;;4974322;28;20333;-88
2022/12/21 11:11:37;;;;;;;3.50;1.57;;;9.60;97.30;;;;;;4974459;28;20935;-87
2022/12/21 11:14:17;;;;;;;3.70;2.50;;;9.60;97.30;;;;;;4974160;28;20923;-88
2022/12/21 11:16:44;;;;;;;3.70;2.87;;;9.70;97.30;;;;;;4973973;28;20439;-88
2022/12/21 11:19:16;;;;;;;5.10;2.27;;;9.70;97.30;;;;;;4991357;28;20499;-88
2022/12/21 11:21:52;;;;;;;2.60;2.40;;;9.80;97.30;;;;;;4961688;28;20482;-88
2022/12/21 11:24:36;;;;;;;1.60;1.40;;;9.80;97.30;;;;;;4973862;28;20947;-88
2022/12/21 11:27:30;;;;;;;4.23;1.83;;;9.90;97.30;;;;;;4973640;28;20460;-87
2022/12/21 11:30:07;;;;;;;3.13;1.97;;;10.00;97.30;;;;;;4969493;28;20432;-88
2022/12/21 11:32:33;;;;;;;2.30;1.97;;;10.00;97.30;;;;;;4974068;28;20413;-88
2022/12/21 11:35:04;;;;;;;1.70;1.60;;;10.00;97.30;;;;;;4973080;28;20425;-88
2022/12/21 11:37:36;;;;;;;1.40;1.30;;;10.00;97.30;;;;;;4973695;28;20441;-88
2022/12/21 11:40:16;;;;;;;4.30;1.87;;;10.00;97.30;;;;;;4990598;28;20413;-88
2022/12/21 11:42:51;;;;;;;1.90;1.80;;;10.00;97.30;;;;;;4973492;28;20831;-89
2022/12/21 11:45:42;;;;;;;1.10;1.03;;;10.00;97.30;;;;;;4973798;28;20519;-88
2022/12/21 11:48:26;;;;;;;1.10;1.00;;;10.00;97.30;;;;;;4972832;28;20564;-88
2022/12/21 11:51:04;;;;;;;2.63;2.43;;;10.00;97.30;;;;;;4973245;28;20818;-88
2022/12/21 11:53:32;;;;;;;2.60;1.93;;;10.10;97.30;;;;;;4973968;28;20939;-88
2022/12/21 11:56:29;;;;;;;1.00;0.90;;;10.10;97.30;;;;;;4979660;28;20774;-88
2022/12/21 11:59:06;;;;;;;1.10;1.00;;;10.10;97.30;;;;;;5011081;23;20487;-83
2022/12/21 12:01:57;;;;;;;1.57;1.47;;;10.10;97.30;;;;;;4992534;28;20520;-79
2022/12/21 12:04:36;;;;;;;5.17;2.60;;;10.10;97.30;;;;;;4995062;28;20408;-80
2022/12/21 12:07:22;;;;;;;1.10;1.00;;;10.10;97.30;;;;;;4996253;28;20464;-80
2022/12/21 12:10:12;;;;;;;1.90;1.60;;;10.10;97.30;;;;;;4997224;28;20444;-84
2022/12/21 12:13:07;;;;;;;1.33;1.23;;;10.10;97.30;;;;;;4998396;28;20416;-83
2022/12/21 12:15:40;;;;;;;1.60;1.50;;;10.10;97.30;;;;;;4992891;28;20915;-83
2022/12/21 12:18:39;;;;;;;1.00;0.90;;;10.10;97.30;;;;;;4995355;28;20432;-83
2022/12/21 12:21:46;;;;;;;3.10;1.40;;;10.10;97.30;;;;;;4997380;28;20416;-84
2022/12/21 12:24:40;;;;;;;1.93;1.40;;;10.10;97.30;;;;;;4996403;28;21033;-84
2022/12/21 12:27:24;;;;;;;1.20;1.10;;;10.20;97.30;;;;;;4996568;28;20495;-84
2022/12/21 12:30:12;;;;;;;2.45;2.25;;;10.20;97.30;;;;;;4977212;28;20432;-84
2022/12/21 12:33:00;;;;;;;4.03;2.30;;;10.20;97.30;;;;;;4989714;28;20445;-85
2022/12/21 12:35:35;;;;;;;1.40;1.30;;;10.20;97.30;;;;;;4996354;28;20430;-84
2022/12/21 12:38:22;;;;;;;1.50;1.40;;;10.20;97.30;;;;;;4992137;28;20954;-84
2022/12/21 12:41:20;;;;;;;1.27;1.17;;;10.20;97.30;;;;;;4996062;28;20442;-84
2022/12/21 12:44:03;;;;;;;1.20;1.10;;;10.20;97.30;;;;;;4986829;28;20459;-84
2022/12/21 12:46:46;;;;;;;1.40;1.30;;;10.20;97.30;;;;;;4982750;28;20455;-84
2022/12/21 12:49:20;;;;;;;1.00;0.90;;;10.20;97.30;;;;;;4996323;28;20443;-84
2022/12/21 12:51:56;;;;;;;1.73;1.63;;;10.20;97.30;;;;;;4996051;28;20473;-84
2022/12/21 12:54:51;;;;;;;5.10;2.00;;;10.20;97.30;;;;;;4995719;28;20438;-84
2022/12/21 12:57:39;;;;;;;1.43;1.17;;;10.20;97.30;;;;;;5013905;28;20443;-84
2022/12/21 13:00:08;;;;;;;1.20;1.10;;;10.20;97.30;;;;;;4987411;28;20464;-84
2022/12/21 13:02:51;;;;;;;1.30;1.20;;;10.20;97.30;;;;;;4991448;28;20432;-84
2022/12/21 13:05:32;;;;;;;2.03;1.73;;;10.20;97.30;;;;;;4996180;28;20420;-84
2022/12/21 13:08:07;;;;;;;1.10;1.03;;;10.20;97.30;;;;;;4993715;28;20451;-84
2022/12/21 13:10:59;;;;;;;1.67;1.23;;;10.20;97.30;;;;;;4983935;28;20539;-84
2022/12/21 13:13:54;;;;;;;4.00;1.37;;;10.20;97.30;;;;;;4985049;28;20412;-84
2022/12/21 13:16:25;;;;;;;1.50;1.40;;;10.20;97.30;;;;;;5000185;28;20943;-84
2022/12/21 13:18:58;;;;;;;1.20;1.10;;;10.20;97.30;;;;;;5011066;28;20439;-86
2022/12/21 13:21:29;;;;;;;1.30;1.20;;;10.20;97.30;;;;;;4984012;28;20733;-83
2022/12/21 13:24:25;;;;;;;1.10;1.00;;;10.30;97.30;;;;;;4990241;28;20503;-83
2022/12/21 13:26:58;;;;;;;1.40;1.30;;;10.40;97.30;;;;;;4986363;28;20816;-83
2022/12/21 13:29:29;;;;;;;1.33;1.30;;;10.40;97.30;;;;;;4992648;28;20474;-84
2022/12/21 13:32:13;;;;;;;1.30;1.20;;;10.40;97.30;;;;;;4994774;28;20446;-83
2022/12/21 13:35:04;;;;;;;1.43;1.40;;;10.50;97.30;;;;;;4988028;28;20426;-83
2022/12/21 13:37:30;;;;;;;1.13;1.03;;;10.70;97.30;;;;;;4993058;28;20412;-83
2022/12/21 13:40:20;;;;;;;1.20;1.10;;;11.10;97.30;;;;;;4993459;28;20451;-86
2022/12/21 13:42:56;;;;;;;0.90;0.80;;;11.50;97.30;;;;;;4996694;28;20178;-83